sensor_id;sensor_type;location;lat;lon;timestamp;temperature;humidity
35563;DHT22;21665;40.108;18.302;2022-10-31T00:01:59;16.40;99.90
35563;DHT22;21665;40.108;18.302;2022-10-31T00:04:25;16.50;99.90
35563;DHT22;21665;40.108;18.302;2022-10-31T00:12:10;16.70;99.90
35563;DHT22;21665;40.108;18.302;2022-10-31T00:14:37;16.70;99.90
35563;DHT22;21665;40.108;18.302;2022-10-31T00:17:03;16.80;99.90
35563;DHT22;21665;40.108;18.302;2022-10-31T00:19:48;16.80;99.90
35563;DHT22;21665;40.108;18.302;2022-10-31T00:22:15;16.90;99.90
35563;DHT22;21665;40.108;18.302;2022-10-31T00:24:44;16.90;99.90
35563;DHT22;21665;40.108;18.302;2022-10-31T00:27:14;16.90;99.90
35563;DHT22;21665;40.108;18.302;2022-10-31T00:29:41;16.90;99.90
35563;DHT22;21665;40.108;18.302;2022-10-31T00:32:08;16.90;99.90
35563;DHT22;21665;40.108;18.302;2022-10-31T00:34:37;16.80;99.90
35563;DHT22;21665;40.108;18.302;2022-10-31T00:37:04;16.70;99.90
35563;DHT22;21665;40.108;18.302;2022-10-31T00:39:31;16.50;99.90
35563;DHT22;21665;40.108;18.302;2022-10-31T00:41:57;16.40;99.90
35563;DHT22;21665;40.108;18.302;2022-10-31T00:44:24;16.30;99.90
35563;DHT22;21665;40.108;18.302;2022-10-31T00:46:50;16.20;99.90
35563;DHT22;21665;40.108;18.302;2022-10-31T00:49:21;16.20;99.90
35563;DHT22;21665;40.108;18.302;2022-10-31T00:51:51;16.30;99.90
35563;DHT22;21665;40.108;18.302;2022-10-31T00:54:18;16.30;99.90
35563;DHT22;21665;40.108;18.302;2022-10-31T00:56:48;16.30;99.90
35563;DHT22;21665;40.108;18.302;2022-10-31T00:59:14;16.30;99.90
35563;DHT22;21665;40.108;18.302;2022-10-31T01:01:41;16.30;99.90
35563;DHT22;21665;40.108;18.302;2022-10-31T01:04:07;16.30;99.90
35563;DHT22;21665;40.108;18.302;2022-10-31T01:09:40;16.40;99.90
35563;DHT22;21665;40.108;18.302;2022-10-31T01:12:07;16.60;99.90
35563;DHT22;21665;40.108;18.302;2022-10-31T01:14:42;16.60;99.90
35563;DHT22;21665;40.108;18.302;2022-10-31T01:17:09;16.70;99.90
35563;DHT22;21665;40.108;18.302;2022-10-31T01:19:39;16.70;99.90
35563;DHT22;21665;40.108;18.302;2022-10-31T01:22:06;16.60;99.90
35563;DHT22;21665;40.108;18.302;2022-10-31T01:24:34;16.60;99.90
35563;DHT22;21665;40.108;18.302;2022-10-31T01:27:02;16.60;99.90
35563;DHT22;21665;40.108;18.302;2022-10-31T01:29:34;16.60;99.90
35563;DHT22;21665;40.108;18.302;2022-10-31T01:32:00;16.60;99.90
35563;DHT22;21665;40.108;18.302;2022-10-31T01:34:30;16.60;99.90
35563;DHT22;21665;40.108;18.302;2022-10-31T01:36:57;16.70;99.90
35563;DHT22;21665;40.108;18.302;2022-10-31T01:39:32;16.70;99.90
35563;DHT22;21665;40.108;18.302;2022-10-31T01:41:59;16.70;99.90
35563;DHT22;21665;40.108;18.302;2022-10-31T01:47:10;16.80;99.90
35563;DHT22;21665;40.108;18.302;2022-10-31T01:49:44;16.80;99.90
35563;DHT22;21665;40.108;18.302;2022-10-31T01:52:28;16.80;99.90
35563;DHT22;21665;40.108;18.302;2022-10-31T01:55:53;16.80;99.90
35563;DHT22;21665;40.108;18.302;2022-10-31T01:58:33;16.80;99.90
35563;DHT22;21665;40.108;18.302;2022-10-31T02:00:57;16.80;99.90
35563;DHT22;21665;40.108;18.302;2022-10-31T02:03:29;16.80;99.90
35563;DHT22;21665;40.108;18.302;2022-10-31T02:05:57;16.90;99.90
35563;DHT22;21665;40.108;18.302;2022-10-31T02:08:35;16.90;99.90
35563;DHT22;21665;40.108;18.302;2022-10-31T02:11:04;17.00;99.90
35563;DHT22;21665;40.108;18.302;2022-10-31T02:13:34;17.00;99.90
35563;DHT22;21665;40.108;18.302;2022-10-31T02:16:01;16.90;99.90
35563;DHT22;21665;40.108;18.302;2022-10-31T02:18:30;17.00;99.90
35563;DHT22;21665;40.108;18.302;2022-10-31T02:21:07;17.00;99.90
35563;DHT22;21665;40.108;18.302;2022-10-31T02:26:41;17.10;99.90
35563;DHT22;21665;40.108;18.302;2022-10-31T02:29:27;17.10;99.90
35563;DHT22;21665;40.108;18.302;2022-10-31T02:38:25;17.10;99.90
35563;DHT22;21665;40.108;18.302;2022-10-31T02:41:32;17.10;99.90
35563;DHT22;21665;40.108;18.302;2022-10-31T02:44:34;17.10;99.90
35563;DHT22;21665;40.108;18.302;2022-10-31T02:47:11;17.10;99.90
35563;DHT22;21665;40.108;18.302;2022-10-31T02:49:57;17.20;99.90
35563;DHT22;21665;40.108;18.302;2022-10-31T02:52:31;17.10;99.90
35563;DHT22;21665;40.108;18.302;2022-10-31T02:58:05;17.10;99.90
35563;DHT22;21665;40.108;18.302;2022-10-31T03:06:23;17.10;99.90
35563;DHT22;21665;40.108;18.302;2022-10-31T03:09:11;17.10;99.90
35563;DHT22;21665;40.108;18.302;2022-10-31T03:11:48;17.10;99.90
35563;DHT22;21665;40.108;18.302;2022-10-31T03:14:31;17.10;99.90
35563;DHT22;21665;40.108;18.302;2022-10-31T03:17:06;17.10;99.90
35563;DHT22;21665;40.108;18.302;2022-10-31T03:19:41;17.10;99.90
35563;DHT22;21665;40.108;18.302;2022-10-31T03:22:25;17.10;99.90
35563;DHT22;21665;40.108;18.302;2022-10-31T03:24:56;17.10;99.90
35563;DHT22;21665;40.108;18.302;2022-10-31T03:27:26;17.20;99.90
35563;DHT22;21665;40.108;18.302;2022-10-31T03:29:57;17.20;99.90
35563;DHT22;21665;40.108;18.302;2022-10-31T03:32:32;17.10;99.90
35563;DHT22;21665;40.108;18.302;2022-10-31T03:35:03;17.10;99.90
35563;DHT22;21665;40.108;18.302;2022-10-31T03:37:36;17.10;99.90
35563;DHT22;21665;40.108;18.302;2022-10-31T03:40:05;17.10;99.90
35563;DHT22;21665;40.108;18.302;2022-10-31T03:42:38;17.10;99.90
35563;DHT22;21665;40.108;18.302;2022-10-31T03:45:24;17.20;99.90
35563;DHT22;21665;40.108;18.302;2022-10-31T03:47:53;17.20;99.90
35563;DHT22;21665;40.108;18.302;2022-10-31T03:50:23;17.20;99.90
35563;DHT22;21665;40.108;18.302;2022-10-31T03:53:11;17.20;99.90
35563;DHT22;21665;40.108;18.302;2022-10-31T03:55:58;17.20;99.90
35563;DHT22;21665;40.108;18.302;2022-10-31T03:58:29;17.20;99.90
35563;DHT22;21665;40.108;18.302;2022-10-31T04:01:01;17.20;99.90
35563;DHT22;21665;40.108;18.302;2022-10-31T04:03:33;17.20;99.90
35563;DHT22;21665;40.108;18.302;2022-10-31T04:06:09;17.20;99.90
35563;DHT22;21665;40.108;18.302;2022-10-31T04:08:44;17.20;99.90
35563;DHT22;21665;40.108;18.302;2022-10-31T04:11:21;17.20;99.90
35563;DHT22;21665;40.108;18.302;2022-10-31T04:14:11;17.20;99.90
35563;DHT22;21665;40.108;18.302;2022-10-31T04:16:45;17.20;99.90
35563;DHT22;21665;40.108;18.302;2022-10-31T04:19:13;17.20;99.90
35563;DHT22;21665;40.108;18.302;2022-10-31T04:21:43;17.20;99.90
35563;DHT22;21665;40.108;18.302;2022-10-31T04:24:10;17.20;99.90
35563;DHT22;21665;40.108;18.302;2022-10-31T04:26:41;17.20;99.90
35563;DHT22;21665;40.108;18.302;2022-10-31T04:29:10;17.20;99.90
35563;DHT22;21665;40.108;18.302;2022-10-31T04:31:38;17.20;99.90
35563;DHT22;21665;40.108;18.302;2022-10-31T04:34:04;17.20;99.90
35563;DHT22;21665;40.108;18.302;2022-10-31T04:36:31;17.20;99.90
35563;DHT22;21665;40.108;18.302;2022-10-31T04:38:57;17.20;99.90
35563;DHT22;21665;40.108;18.302;2022-10-31T04:41:42;17.20;99.90
35563;DHT22;21665;40.108;18.302;2022-10-31T04:44:14;17.20;99.90
35563;DHT22;21665;40.108;18.302;2022-10-31T04:46:47;17.30;99.90
35563;DHT22;21665;40.108;18.302;2022-10-31T04:49:17;17.20;99.90
35563;DHT22;21665;40.108;18.302;2022-10-31T04:51:46;17.30;99.90
35563;DHT22;21665;40.108;18.302;2022-10-31T04:54:13;17.30;99.90
35563;DHT22;21665;40.108;18.302;2022-10-31T04:56:40;17.30;99.90
35563;DHT22;21665;40.108;18.302;2022-10-31T04:59:14;17.30;99.90
35563;DHT22;21665;40.108;18.302;2022-10-31T05:02:00;17.30;99.90
35563;DHT22;21665;40.108;18.302;2022-10-31T05:08:33;17.40;99.90
35563;DHT22;21665;40.108;18.302;2022-10-31T05:11:04;17.50;99.90
35563;DHT22;21665;40.108;18.302;2022-10-31T05:13:33;17.40;99.90
35563;DHT22;21665;40.108;18.302;2022-10-31T05:16:18;17.40;99.90
35563;DHT22;21665;40.108;18.302;2022-10-31T05:18:48;17.50;99.90
35563;DHT22;21665;40.108;18.302;2022-10-31T05:21:52;17.50;99.90
35563;DHT22;21665;40.108;18.302;2022-10-31T05:24:19;17.50;99.90
35563;DHT22;21665;40.108;18.302;2022-10-31T05:26:48;17.50;99.90
35563;DHT22;21665;40.108;18.302;2022-10-31T05:29:19;17.60;99.90
35563;DHT22;21665;40.108;18.302;2022-10-31T05:31:45;17.60;99.90
35563;DHT22;21665;40.108;18.302;2022-10-31T05:34:32;17.70;99.90
35563;DHT22;21665;40.108;18.302;2022-10-31T05:37:27;17.70;99.90
35563;DHT22;21665;40.108;18.302;2022-10-31T05:39:58;17.70;99.90
35563;DHT22;21665;40.108;18.302;2022-10-31T05:42:26;17.70;99.90
35563;DHT22;21665;40.108;18.302;2022-10-31T05:44:52;17.80;99.90
35563;DHT22;21665;40.108;18.302;2022-10-31T05:48:09;17.80;99.90
35563;DHT22;21665;40.108;18.302;2022-10-31T05:50:54;17.90;99.90
35563;DHT22;21665;40.108;18.302;2022-10-31T05:53:53;17.90;99.90
35563;DHT22;21665;40.108;18.302;2022-10-31T05:56:21;18.00;99.90
35563;DHT22;21665;40.108;18.302;2022-10-31T05:58:49;18.00;99.90
35563;DHT22;21665;40.108;18.302;2022-10-31T06:01:16;18.00;99.90
35563;DHT22;21665;40.108;18.302;2022-10-31T06:03:45;18.00;99.90
35563;DHT22;21665;40.108;18.302;2022-10-31T06:06:18;18.10;99.90
35563;DHT22;21665;40.108;18.302;2022-10-31T06:08:45;18.20;99.90
35563;DHT22;21665;40.108;18.302;2022-10-31T06:11:17;18.30;99.90
35563;DHT22;21665;40.108;18.302;2022-10-31T06:14:10;18.30;99.90
35563;DHT22;21665;40.108;18.302;2022-10-31T06:16:50;18.40;99.90
35563;DHT22;21665;40.108;18.302;2022-10-31T06:19:35;18.40;99.90
35563;DHT22;21665;40.108;18.302;2022-10-31T06:22:01;18.50;99.90
35563;DHT22;21665;40.108;18.302;2022-10-31T06:24:29;18.70;99.90
35563;DHT22;21665;40.108;18.302;2022-10-31T06:27:20;18.80;99.90
35563;DHT22;21665;40.108;18.302;2022-10-31T06:29:48;18.90;99.90
35563;DHT22;21665;40.108;18.302;2022-10-31T06:32:27;19.00;99.90
35563;DHT22;21665;40.108;18.302;2022-10-31T06:34:54;19.20;99.90
35563;DHT22;21665;40.108;18.302;2022-10-31T06:37:23;19.50;99.90
35563;DHT22;21665;40.108;18.302;2022-10-31T06:39:52;19.60;99.90
35563;DHT22;21665;40.108;18.302;2022-10-31T06:42:19;19.70;99.90
35563;DHT22;21665;40.108;18.302;2022-10-31T06:44:46;19.60;99.90
35563;DHT22;21665;40.108;18.302;2022-10-31T06:47:31;19.50;99.90
35563;DHT22;21665;40.108;18.302;2022-10-31T06:50:16;19.60;99.90
35563;DHT22;21665;40.108;18.302;2022-10-31T06:52:56;19.70;99.90
35563;DHT22;21665;40.108;18.302;2022-10-31T06:55:24;19.70;99.90
35563;DHT22;21665;40.108;18.302;2022-10-31T06:58:01;19.80;99.90
35563;DHT22;21665;40.108;18.302;2022-10-31T07:00:30;19.70;99.90
35563;DHT22;21665;40.108;18.302;2022-10-31T07:03:16;19.70;99.90
35563;DHT22;21665;40.108;18.302;2022-10-31T07:05:44;19.90;99.90
35563;DHT22;21665;40.108;18.302;2022-10-31T07:08:14;20.10;99.90
35563;DHT22;21665;40.108;18.302;2022-10-31T07:10:42;20.00;99.90
35563;DHT22;21665;40.108;18.302;2022-10-31T07:13:12;19.90;99.90
35563;DHT22;21665;40.108;18.302;2022-10-31T07:15:41;20.00;99.90
35563;DHT22;21665;40.108;18.302;2022-10-31T07:18:10;20.00;99.90
35563;DHT22;21665;40.108;18.302;2022-10-31T07:20:37;19.80;99.90
35563;DHT22;21665;40.108;18.302;2022-10-31T07:23:04;20.00;99.90
35563;DHT22;21665;40.108;18.302;2022-10-31T07:25:32;20.10;99.90
35563;DHT22;21665;40.108;18.302;2022-10-31T07:28:05;20.30;99.90
35563;DHT22;21665;40.108;18.302;2022-10-31T07:30:37;20.30;99.90
35563;DHT22;21665;40.108;18.302;2022-10-31T07:33:04;20.60;99.90
35563;DHT22;21665;40.108;18.302;2022-10-31T07:35:50;20.70;99.90
35563;DHT22;21665;40.108;18.302;2022-10-31T07:38:21;20.70;99.90
35563;DHT22;21665;40.108;18.302;2022-10-31T07:40:55;20.60;99.90
35563;DHT22;21665;40.108;18.302;2022-10-31T07:43:23;20.60;99.90
35563;DHT22;21665;40.108;18.302;2022-10-31T07:46:10;20.50;99.90
35563;DHT22;21665;40.108;18.302;2022-10-31T07:48:55;20.50;99.90
35563;DHT22;21665;40.108;18.302;2022-10-31T07:51:40;20.50;99.90
35563;DHT22;21665;40.108;18.302;2022-10-31T07:54:29;20.70;99.90
35563;DHT22;21665;40.108;18.302;2022-10-31T07:56:56;20.70;99.90
35563;DHT22;21665;40.108;18.302;2022-10-31T07:59:23;20.90;99.90
35563;DHT22;21665;40.108;18.302;2022-10-31T08:01:49;21.00;99.90
35563;DHT22;21665;40.108;18.302;2022-10-31T08:04:54;21.20;99.90
35563;DHT22;21665;40.108;18.302;2022-10-31T08:07:39;21.10;99.90
35563;DHT22;21665;40.108;18.302;2022-10-31T08:35:24;21.10;99.90
35563;DHT22;21665;40.108;18.302;2022-10-31T08:38:14;21.10;99.90
35563;DHT22;21665;40.108;18.302;2022-10-31T08:47:43;21.30;99.90
35563;DHT22;21665;40.108;18.302;2022-10-31T08:51:09;21.30;99.90
35563;DHT22;21665;40.108;18.302;2022-10-31T08:53:54;21.40;99.90
35563;DHT22;21665;40.108;18.302;2022-10-31T09:10:21;21.30;99.90
35563;DHT22;21665;40.108;18.302;2022-10-31T09:13:18;21.30;99.90
35563;DHT22;21665;40.108;18.302;2022-10-31T09:16:13;21.40;99.90
35563;DHT22;21665;40.108;18.302;2022-10-31T09:19:20;21.50;99.90
35563;DHT22;21665;40.108;18.302;2022-10-31T09:59:48;22.40;99.90
35563;DHT22;21665;40.108;18.302;2022-10-31T10:03:19;22.30;99.90
35563;DHT22;21665;40.108;18.302;2022-10-31T10:23:05;22.60;99.90
35563;DHT22;21665;40.108;18.302;2022-10-31T10:34:48;22.30;99.90
35563;DHT22;21665;40.108;18.302;2022-10-31T10:51:31;22.60;99.90
35563;DHT22;21665;40.108;18.302;2022-10-31T11:09:35;22.80;99.90
35563;DHT22;21665;40.108;18.302;2022-10-31T11:48:59;23.00;99.90
35563;DHT22;21665;40.108;18.302;2022-10-31T11:52:02;23.20;99.90
35563;DHT22;21665;40.108;18.302;2022-10-31T11:58:02;23.20;99.90
35563;DHT22;21665;40.108;18.302;2022-10-31T12:08:41;23.20;99.90
35563;DHT22;21665;40.108;18.302;2022-10-31T12:14:51;23.30;99.90
35563;DHT22;21665;40.108;18.302;2022-10-31T16:56:38;19.20;99.90
35563;DHT22;21665;40.108;18.302;2022-10-31T16:59:58;19.10;99.90
35563;DHT22;21665;40.108;18.302;2022-10-31T17:02:56;19.10;99.90
35563;DHT22;21665;40.108;18.302;2022-10-31T17:05:53;19.10;99.90
35563;DHT22;21665;40.108;18.302;2022-10-31T17:08:32;19.10;99.90
35563;DHT22;21665;40.108;18.302;2022-10-31T17:11:02;19.10;99.90
35563;DHT22;21665;40.108;18.302;2022-10-31T17:46:58;18.90;99.90
35563;DHT22;21665;40.108;18.302;2022-10-31T18:14:13;18.80;99.90
35563;DHT22;21665;40.108;18.302;2022-10-31T18:17:00;18.80;99.90
35563;DHT22;21665;40.108;18.302;2022-10-31T18:19:29;18.80;99.90
35563;DHT22;21665;40.108;18.302;2022-10-31T18:21:55;18.80;99.90
35563;DHT22;21665;40.108;18.302;2022-10-31T18:24:22;18.70;99.90
35563;DHT22;21665;40.108;18.302;2022-10-31T18:26:48;18.80;99.90
35563;DHT22;21665;40.108;18.302;2022-10-31T18:29:18;18.80;99.90
35563;DHT22;21665;40.108;18.302;2022-10-31T18:31:51;18.80;99.90
35563;DHT22;21665;40.108;18.302;2022-10-31T18:34:19;18.80;99.90
35563;DHT22;21665;40.108;18.302;2022-10-31T18:36:46;18.70;99.90
35563;DHT22;21665;40.108;18.302;2022-10-31T18:39:15;18.80;99.90
35563;DHT22;21665;40.108;18.302;2022-10-31T18:41:44;18.70;99.90
35563;DHT22;21665;40.108;18.302;2022-10-31T18:44:20;18.70;99.90
35563;DHT22;21665;40.108;18.302;2022-10-31T18:47:12;18.70;99.90
35563;DHT22;21665;40.108;18.302;2022-10-31T18:49:48;18.70;99.90
35563;DHT22;21665;40.108;18.302;2022-10-31T18:52:42;18.70;99.90
35563;DHT22;21665;40.108;18.302;2022-10-31T18:55:08;18.70;99.90
35563;DHT22;21665;40.108;18.302;2022-10-31T18:57:35;18.70;99.90
35563;DHT22;21665;40.108;18.302;2022-10-31T19:00:08;18.60;99.90
35563;DHT22;21665;40.108;18.302;2022-10-31T19:03:07;18.60;99.90
35563;DHT22;21665;40.108;18.302;2022-10-31T19:05:34;18.60;99.90
35563;DHT22;21665;40.108;18.302;2022-10-31T19:08:10;18.60;99.90
35563;DHT22;21665;40.108;18.302;2022-10-31T19:10:39;18.60;99.90
35563;DHT22;21665;40.108;18.302;2022-10-31T19:13:06;18.60;99.90
35563;DHT22;21665;40.108;18.302;2022-10-31T19:15:35;18.60;99.90
35563;DHT22;21665;40.108;18.302;2022-10-31T19:18:30;18.60;99.90
35563;DHT22;21665;40.108;18.302;2022-10-31T19:21:15;18.50;99.90
35563;DHT22;21665;40.108;18.302;2022-10-31T19:23:52;18.50;99.90
35563;DHT22;21665;40.108;18.302;2022-10-31T19:26:50;18.50;99.90
35563;DHT22;21665;40.108;18.302;2022-10-31T19:29:19;18.50;99.90
35563;DHT22;21665;40.108;18.302;2022-10-31T19:38:48;18.50;99.90
35563;DHT22;21665;40.108;18.302;2022-10-31T19:41:18;18.40;99.90
35563;DHT22;21665;40.108;18.302;2022-10-31T19:43:45;18.40;99.90
35563;DHT22;21665;40.108;18.302;2022-10-31T20:09:12;18.20;99.90
35563;DHT22;21665;40.108;18.302;2022-10-31T20:11:43;18.10;99.90
35563;DHT22;21665;40.108;18.302;2022-10-31T20:14:14;18.10;99.90
35563;DHT22;21665;40.108;18.302;2022-10-31T20:16:45;18.00;99.90
35563;DHT22;21665;40.108;18.302;2022-10-31T20:19:19;17.90;99.90
35563;DHT22;21665;40.108;18.302;2022-10-31T20:21:45;17.90;99.90
35563;DHT22;21665;40.108;18.302;2022-10-31T20:30:44;18.00;99.90
35563;DHT22;21665;40.108;18.302;2022-10-31T20:33:13;17.90;99.90
35563;DHT22;21665;40.108;18.302;2022-10-31T20:35:41;17.80;99.90
35563;DHT22;21665;40.108;18.302;2022-10-31T20:38:11;17.80;99.90
35563;DHT22;21665;40.108;18.302;2022-10-31T20:40:38;17.90;99.90
35563;DHT22;21665;40.108;18.302;2022-10-31T20:43:05;17.90;99.90
35563;DHT22;21665;40.108;18.302;2022-10-31T20:45:32;17.90;99.90
35563;DHT22;21665;40.108;18.302;2022-10-31T20:47:59;17.90;99.90
35563;DHT22;21665;40.108;18.302;2022-10-31T20:50:25;17.90;99.90
35563;DHT22;21665;40.108;18.302;2022-10-31T20:52:52;17.90;99.90
35563;DHT22;21665;40.108;18.302;2022-10-31T20:55:37;17.90;99.90
35563;DHT22;21665;40.108;18.302;2022-10-31T20:58:07;17.90;99.90
35563;DHT22;21665;40.108;18.302;2022-10-31T21:00:33;17.90;99.90
35563;DHT22;21665;40.108;18.302;2022-10-31T21:02:59;17.90;99.90
35563;DHT22;21665;40.108;18.302;2022-10-31T21:05:26;17.90;99.90
35563;DHT22;21665;40.108;18.302;2022-10-31T21:07:52;18.00;99.90
35563;DHT22;21665;40.108;18.302;2022-10-31T21:10:19;17.90;99.90
35563;DHT22;21665;40.108;18.302;2022-10-31T21:12:45;17.90;99.90
35563;DHT22;21665;40.108;18.302;2022-10-31T21:15:13;17.90;99.90
35563;DHT22;21665;40.108;18.302;2022-10-31T21:17:41;17.90;99.90
35563;DHT22;21665;40.108;18.302;2022-10-31T21:20:23;17.90;99.90
35563;DHT22;21665;40.108;18.302;2022-10-31T21:22:50;17.90;99.90
35563;DHT22;21665;40.108;18.302;2022-10-31T21:25:17;17.80;99.90
35563;DHT22;21665;40.108;18.302;2022-10-31T21:27:43;17.70;99.90
35563;DHT22;21665;40.108;18.302;2022-10-31T21:30:10;17.70;99.90
35563;DHT22;21665;40.108;18.302;2022-10-31T21:32:37;17.60;99.90
35563;DHT22;21665;40.108;18.302;2022-10-31T21:35:03;17.60;99.90
35563;DHT22;21665;40.108;18.302;2022-10-31T21:37:30;17.50;99.90
35563;DHT22;21665;40.108;18.302;2022-10-31T21:39:56;17.40;99.90
35563;DHT22;21665;40.108;18.302;2022-10-31T21:42:23;17.30;99.90
35563;DHT22;21665;40.108;18.302;2022-10-31T21:44:50;17.30;99.90
35563;DHT22;21665;40.108;18.302;2022-10-31T21:47:17;17.20;99.90
35563;DHT22;21665;40.108;18.302;2022-10-31T21:49:44;17.30;99.90
35563;DHT22;21665;40.108;18.302;2022-10-31T21:52:10;17.30;99.90
35563;DHT22;21665;40.108;18.302;2022-10-31T21:54:37;17.40;99.90
35563;DHT22;21665;40.108;18.302;2022-10-31T21:57:03;17.40;99.90
35563;DHT22;21665;40.108;18.302;2022-10-31T21:59:30;17.40;99.90
35563;DHT22;21665;40.108;18.302;2022-10-31T22:01:57;17.40;99.90
35563;DHT22;21665;40.108;18.302;2022-10-31T22:04:26;17.50;99.90
35563;DHT22;21665;40.108;18.302;2022-10-31T22:06:54;17.50;99.90
35563;DHT22;21665;40.108;18.302;2022-10-31T22:09:20;17.50;99.90
35563;DHT22;21665;40.108;18.302;2022-10-31T22:11:49;17.50;99.90
35563;DHT22;21665;40.108;18.302;2022-10-31T22:14:15;17.50;99.90
35563;DHT22;21665;40.108;18.302;2022-10-31T22:16:42;17.50;99.90
35563;DHT22;21665;40.108;18.302;2022-10-31T22:19:11;17.50;99.90
35563;DHT22;21665;40.108;18.302;2022-10-31T22:21:44;17.40;99.90
35563;DHT22;21665;40.108;18.302;2022-10-31T22:24:12;17.40;99.90
35563;DHT22;21665;40.108;18.302;2022-10-31T22:26:40;17.40;99.90
35563;DHT22;21665;40.108;18.302;2022-10-31T22:29:12;17.40;99.90
35563;DHT22;21665;40.108;18.302;2022-10-31T22:31:45;17.40;99.90
35563;DHT22;21665;40.108;18.302;2022-10-31T22:34:15;17.40;99.90
35563;DHT22;21665;40.108;18.302;2022-10-31T22:36:42;17.40;99.90
35563;DHT22;21665;40.108;18.302;2022-10-31T22:39:10;17.40;99.90
35563;DHT22;21665;40.108;18.302;2022-10-31T22:41:38;17.40;99.90
35563;DHT22;21665;40.108;18.302;2022-10-31T22:44:05;17.50;99.90
35563;DHT22;21665;40.108;18.302;2022-10-31T22:46:37;17.40;99.90
35563;DHT22;21665;40.108;18.302;2022-10-31T22:49:11;17.40;99.90
35563;DHT22;21665;40.108;18.302;2022-10-31T22:51:43;17.40;99.90
35563;DHT22;21665;40.108;18.302;2022-10-31T22:54:14;17.40;99.90
35563;DHT22;21665;40.108;18.302;2022-10-31T22:56:42;17.40;99.90
35563;DHT22;21665;40.108;18.302;2022-10-31T22:59:11;17.40;99.90
35563;DHT22;21665;40.108;18.302;2022-10-31T23:01:39;17.30;99.90
35563;DHT22;21665;40.108;18.302;2022-10-31T23:04:07;17.30;99.90
35563;DHT22;21665;40.108;18.302;2022-10-31T23:06:33;17.30;99.90
35563;DHT22;21665;40.108;18.302;2022-10-31T23:09:02;17.20;99.90
35563;DHT22;21665;40.108;18.302;2022-10-31T23:11:56;17.20;99.90
35563;DHT22;21665;40.108;18.302;2022-10-31T23:14:47;17.10;99.90
35563;DHT22;21665;40.108;18.302;2022-10-31T23:17:13;17.00;99.90
35563;DHT22;21665;40.108;18.302;2022-10-31T23:19:45;16.90;99.90
35563;DHT22;21665;40.108;18.302;2022-10-31T23:22:15;16.90;99.90
35563;DHT22;21665;40.108;18.302;2022-10-31T23:24:44;16.90;99.90
35563;DHT22;21665;40.108;18.302;2022-10-31T23:27:17;17.00;99.90
35563;DHT22;21665;40.108;18.302;2022-10-31T23:29:52;17.00;99.90
35563;DHT22;21665;40.108;18.302;2022-10-31T23:32:32;17.10;99.90
35563;DHT22;21665;40.108;18.302;2022-10-31T23:35:04;17.10;99.90
35563;DHT22;21665;40.108;18.302;2022-10-31T23:37:34;17.00;99.90
35563;DHT22;21665;40.108;18.302;2022-10-31T23:40:01;17.00;99.90
35563;DHT22;21665;40.108;18.302;2022-10-31T23:42:28;17.00;99.90
35563;DHT22;21665;40.108;18.302;2022-10-31T23:44:54;17.00;99.90
35563;DHT22;21665;40.108;18.302;2022-10-31T23:47:22;16.90;99.90
35563;DHT22;21665;40.108;18.302;2022-10-31T23:49:49;16.90;99.90
35563;DHT22;21665;40.108;18.302;2022-10-31T23:52:16;16.90;99.90
35563;DHT22;21665;40.108;18.302;2022-10-31T23:54:44;16.80;99.90
35563;DHT22;21665;40.108;18.302;2022-10-31T23:57:14;16.70;99.90
35563;DHT22;21665;40.108;18.302;2022-10-31T23:59:41;16.70;99.90
